Time;durP1;ratioP1;P1;durP2;ratioP2;P2;SDS_P1;SDS_P2;PMS_P1;PMS_P2;Temp;Humidity;BMP_temperature;BMP_pressure;BME280_temperature;BME280_humidity;BME280_pressure;Samples;Min_cycle;Max_cycle;Signal;HPM_P1;HPM_P2
2023/02/21 05:24:09;;;;;;;8.33;3.37;;;;;;;3.58;100.00;96566.44;6220361;23;20027;-88
2023/02/21 05:26:39;;;;;;;7.77;3.23;;;;;;;3.47;100.00;96564.59;6214182;23;20099;-89
2023/02/21 05:29:07;;;;;;;8.07;3.27;;;;;;;3.45;100.00;96558.66;6185496;23;20018;-89
2023/02/21 05:31:33;;;;;;;8.20;3.57;;;;;;;3.48;100.00;96555.84;6185057;23;20028;-88
2023/02/21 05:34:05;;;;;;;6.47;3.13;;;;;;;3.40;100.00;96559.94;6186717;23;20325;-87
2023/02/21 05:36:31;;;;;;;5.60;2.80;;;;;;;3.42;100.00;96564.09;6187229;23;20516;-88
2023/02/21 05:38:57;;;;;;;9.50;3.53;;;;;;;2.87;100.00;96567.88;6185042;23;20004;-88
2023/02/21 05:41:23;;;;;;;7.00;3.13;;;;;;;2.63;100.00;96569.53;6184154;23;20017;-88
2023/02/21 05:43:49;;;;;;;5.93;2.90;;;;;;;2.56;100.00;96569.09;6185282;23;20047;-88
2023/02/21 05:46:18;;;;;;;5.40;2.47;;;;;;;2.54;100.00;96578.75;6186496;23;20078;-88
2023/02/21 05:48:44;;;;;;;6.27;2.53;;;;;;;2.47;100.00;96583.53;6186605;23;20104;-87
2023/02/21 05:51:19;;;;;;;5.50;2.63;;;;;;;2.40;100.00;96576.25;6212000;23;20008;-88
2023/02/21 05:53:45;;;;;;;6.30;3.20;;;;;;;2.34;100.00;96585.25;6200535;22;20055;-88
2023/02/21 05:56:11;;;;;;;5.17;2.60;;;;;;;2.33;100.00;96586.19;6213067;22;20004;-89
2023/02/21 05:58:37;;;;;;;7.67;2.90;;;;;;;2.36;100.00;96592.00;6190826;23;20008;-88
2023/02/21 06:01:04;;;;;;;8.73;3.40;;;;;;;2.29;100.00;96603.72;6186565;23;20017;-87
2023/02/21 06:03:31;;;;;;;9.17;2.93;;;;;;;2.17;100.00;96599.31;6191818;23;20503;-87
2023/02/21 06:05:56;;;;;;;7.90;3.37;;;;;;;2.04;100.00;96601.03;6244815;23;20016;-87
2023/02/21 06:08:22;;;;;;;9.57;3.10;;;;;;;2.18;100.00;96600.16;6194033;23;20067;-87
2023/02/21 06:10:48;;;;;;;8.80;3.23;;;;;;;2.22;100.00;96597.28;6234651;23;20019;-87
2023/02/21 06:13:15;;;;;;;6.60;2.97;;;;;;;2.27;100.00;96589.19;6209415;23;20008;-88
2023/02/21 06:15:59;;;;;;;6.27;2.87;;;;;;;2.46;100.00;96591.41;6184978;23;20340;-87
2023/02/21 06:18:25;;;;;;;6.67;2.90;;;;;;;2.56;100.00;96580.31;6184474;23;20013;-87
2023/02/21 06:20:54;;;;;;;7.90;2.77;;;;;;;2.69;100.00;96579.53;6210979;23;20079;-88
2023/02/21 06:23:22;;;;;;;5.67;2.33;;;;;;;2.76;100.00;96585.97;6211633;23;20127;-88
2023/02/21 06:25:48;;;;;;;6.50;2.73;;;;;;;2.70;100.00;96575.97;6186373;23;20411;-88
2023/02/21 06:28:16;;;;;;;6.90;2.77;;;;;;;2.73;100.00;96583.56;6186615;23;20194;-87
2023/02/21 06:30:42;;;;;;;6.97;3.40;;;;;;;2.77;100.00;96592.81;6235800;23;20016;-87
2023/02/21 06:33:11;;;;;;;7.80;3.13;;;;;;;2.79;100.00;96586.59;6236867;23;20104;-87
2023/02/21 06:35:37;;;;;;;12.77;5.37;;;;;;;2.84;100.00;96584.50;6213633;23;20027;-87
2023/02/21 06:38:03;;;;;;;7.80;3.87;;;;;;;2.80;100.00;96584.81;6194662;23;20040;-88
2023/02/21 06:40:29;;;;;;;10.60;3.40;;;;;;;2.97;100.00;96588.88;6195569;23;20019;-86
2023/02/21 06:42:54;;;;;;;8.07;3.83;;;;;;;3.08;100.00;96588.97;6185509;23;20047;-87
2023/02/21 06:45:20;;;;;;;7.80;4.40;;;;;;;3.21;100.00;96589.78;6186210;23;20037;-86
2023/02/21 06:47:46;;;;;;;7.33;4.10;;;;;;;3.38;100.00;96588.63;6186767;23;20009;-88
2023/02/21 06:50:12;;;;;;;8.63;3.87;;;;;;;3.38;100.00;96587.81;6186723;23;20127;-88
2023/02/21 06:52:38;;;;;;;7.10;3.57;;;;;;;3.57;100.00;96587.38;6186630;23;20019;-88
2023/02/21 06:55:07;;;;;;;11.37;3.03;;;;;;;3.75;100.00;96583.47;6187239;23;20020;-89
2023/02/21 06:57:33;;;;;;;9.80;3.37;;;;;;;3.97;100.00;96590.59;6187091;23;20092;-89
2023/02/21 06:59:59;;;;;;;9.20;4.53;;;;;;;3.98;100.00;96587.03;6186614;23;20050;-89
2023/02/21 07:02:29;;;;;;;5.73;2.80;;;;;;;4.05;100.00;96587.41;6187084;23;20008;-91
2023/02/21 07:05:08;;;;;;;5.70;3.43;;;;;;;4.31;100.00;96581.16;6237403;23;20009;-91
2023/02/21 07:07:41;;;;;;;8.93;3.10;;;;;;;4.33;100.00;96587.09;6191120;23;20013;-90
2023/02/21 07:10:27;;;;;;;6.27;3.27;;;;;;;4.46;100.00;96589.59;6188090;23;20310;-91
2023/02/21 07:13:01;;;;;;;8.70;3.43;;;;;;;4.78;100.00;96579.41;6190138;23;20050;-90
2023/02/21 07:15:27;;;;;;;11.10;3.20;;;;;;;5.22;100.00;96577.81;6187250;23;20372;-88
2023/02/21 07:17:53;;;;;;;6.37;2.77;;;;;;;5.70;100.00;96567.16;6212396;23;20012;-88
2023/02/21 07:20:26;;;;;;;8.60;2.97;;;;;;;6.09;100.00;96564.94;6185779;23;20000;-88
2023/02/21 07:22:52;;;;;;;5.07;2.65;;;;;;;6.65;100.00;96569.94;6189830;23;20064;-87
2023/02/21 07:25:25;;;;;;;10.83;5.33;;;;;;;7.11;100.00;96576.56;6191598;23;20039;-87
2023/02/21 07:27:53;;;;;;;9.75;4.13;;;;;;;7.57;100.00;96564.78;6225501;23;20012;-87
2023/02/21 07:30:24;;;;;;;10.17;5.53;;;;;;;8.30;100.00;96572.41;6186408;23;20009;-87
2023/02/21 07:32:50;;;;;;;13.60;6.13;;;;;;;8.37;100.00;96565.63;6184431;23;20017;-87
2023/02/21 07:35:16;;;;;;;10.27;4.53;;;;;;;8.71;100.00;96566.91;6188701;23;20039;-88
2023/02/21 07:37:42;;;;;;;7.30;3.23;;;;;;;9.11;100.00;96565.03;6191227;23;20013;-88
2023/02/21 07:40:08;;;;;;;6.30;2.83;;;;;;;9.04;100.00;96564.78;6237924;23;20009;-88
2023/02/21 07:42:34;;;;;;;7.30;3.10;;;;;;;9.14;100.00;96557.72;6253774;23;20039;-89
2023/02/21 07:45:02;;;;;;;5.23;2.83;;;;;;;9.76;100.00;96558.03;6198805;23;20005;-88
2023/02/21 07:47:28;;;;;;;7.07;2.77;;;;;;;10.13;100.00;96557.97;6187320;23;20024;-88
2023/02/21 07:49:58;;;;;;;6.60;2.70;;;;;;;10.28;100.00;96554.84;6187691;23;20333;-88
2023/02/21 07:52:23;;;;;;;6.97;2.57;;;;;;;10.13;100.00;96559.78;6242661;23;20048;-88
2023/02/21 07:55:04;;;;;;;4.90;2.50;;;;;;;10.33;100.00;96565.75;6187069;23;20016;-88
2023/02/21 07:57:32;;;;;;;8.60;2.80;;;;;;;10.72;100.00;96557.53;6188117;23;20020;-88
2023/02/21 07:59:58;;;;;;;6.67;2.60;;;;;;;11.36;100.00;96558.97;6211601;23;20012;-88
2023/02/21 08:02:30;;;;;;;7.60;3.03;;;;;;;10.71;100.00;96555.91;6186514;23;20099;-88
2023/02/21 08:04:57;;;;;;;6.63;2.40;;;;;;;11.50;100.00;96563.66;6236046;23;20044;-88
2023/02/21 08:07:29;;;;;;;7.27;2.33;;;;;;;11.64;100.00;96556.16;6186698;23;20013;-89
2023/02/21 08:09:55;;;;;;;4.90;2.30;;;;;;;12.34;100.00;96554.09;6191318;23;20024;-88
2023/02/21 08:12:21;;;;;;;5.07;2.30;;;;;;;12.09;100.00;96560.31;6219819;23;20012;-88
2023/02/21 08:14:47;;;;;;;4.57;2.13;;;;;;;12.49;100.00;96555.09;6186178;23;20012;-89
2023/02/21 08:17:14;;;;;;;5.10;2.00;;;;;;;12.64;100.00;96549.16;6186375;23;20075;-89
2023/02/21 08:19:40;;;;;;;4.67;1.70;;;;;;;13.38;95.84;96548.16;6236616;23;20083;-89
2023/02/21 08:22:06;;;;;;;4.90;2.37;;;;;;;13.42;96.53;96551.28;6236134;23;20042;-89
2023/02/21 08:24:33;;;;;;;3.63;1.90;;;;;;;13.55;94.46;96548.94;6186951;23;20009;-88
2023/02/21 08:26:59;;;;;;;4.87;2.03;;;;;;;13.12;98.70;96555.44;6211635;23;20063;-89
2023/02/21 08:29:25;;;;;;;6.20;2.77;;;;;;;14.23;93.19;96555.41;6161338;23;20020;-88
2023/02/21 08:31:51;;;;;;;28.67;7.33;;;;;;;14.44;96.99;96557.44;6185415;23;20467;-89
2023/02/21 08:34:16;;;;;;;16.10;4.83;;;;;;;14.22;95.15;96556.41;6161795;23;20008;-88
2023/02/21 08:36:44;;;;;;;9.67;3.17;;;;;;;15.24;94.79;96553.53;6187082;23;20012;-89
2023/02/21 08:39:11;;;;;;;6.17;2.50;;;;;;;15.51;89.67;96549.44;6187319;23;20100;-89
2023/02/21 08:41:49;;;;;;;5.67;2.17;;;;;;;15.30;89.23;96556.28;6197044;22;19992;-90
2023/02/21 08:44:16;;;;;;;6.60;2.15;;;;;;;15.12;87.64;96555.75;6214208;22;20004;-90
2023/02/21 08:46:42;;;;;;;7.95;2.58;;;;;;;14.46;91.74;96558.09;6194697;23;20111;-88
2023/02/21 08:49:09;;;;;;;5.32;2.30;;;;;;;14.87;90.94;96560.47;6236230;23;20032;-89
2023/02/21 08:51:46;;;;;;;6.40;2.33;;;;;;;15.15;90.46;96560.72;6185244;23;20040;-88
2023/02/21 08:54:12;;;;;;;4.85;1.90;;;;;;;15.75;84.15;96558.97;6235526;23;20021;-90
2023/02/21 08:57:03;;;;;;;6.90;2.50;;;;;;;15.28;85.84;96562.75;6186410;23;20012;-89
2023/02/21 08:59:32;;;;;;;7.28;2.20;;;;;;;15.50;87.90;96571.66;6187248;23;20088;-88
2023/02/21 09:02:31;;;;;;;6.15;2.72;;;;;;;15.46;85.72;96570.34;6162847;23;20005;-88
2023/02/21 09:04:58;;;;;;;9.48;3.65;;;;;;;15.77;86.17;96562.28;6148370;23;20095;-89
2023/02/21 09:07:24;;;;;;;6.72;2.78;;;;;;;15.98;84.88;96558.84;6238522;23;20415;-91
2023/02/21 09:10:09;;;;;;;9.68;2.88;;;;;;;16.06;86.84;96565.88;6190200;23;20008;-90
2023/02/21 09:12:37;;;;;;;5.93;2.70;;;;;;;16.16;84.51;96566.41;6211612;23;20017;-90
2023/02/21 09:15:04;;;;;;;9.57;3.17;;;;;;;16.53;82.73;96562.75;6236571;23;20221;-90
2023/02/21 09:17:34;;;;;;;5.38;2.75;;;;;;;17.54;76.55;96563.44;6186624;23;20027;-90
2023/02/21 09:20:05;;;;;;;5.70;2.70;;;;;;;16.05;86.91;96564.25;6236913;23;20024;-90
2023/02/21 09:22:32;;;;;;;6.68;2.97;;;;;;;16.79;81.34;96578.16;6186254;23;20016;-91
2023/02/21 09:24:59;;;;;;;6.90;3.13;;;;;;;17.75;73.22;96573.19;6185057;23;20456;-91
2023/02/21 09:27:37;;;;;;;9.48;3.30;;;;;;;17.66;72.74;96569.03;6234811;23;20024;-91
2023/02/21 09:30:09;;;;;;;6.03;2.83;;;;;;;17.72;70.67;96568.25;6187739;23;20016;-91
2023/02/21 09:33:02;;;;;;;7.00;3.10;;;;;;;18.80;67.66;96572.00;6235851;23;20023;-90
2023/02/21 09:35:30;;;;;;;4.97;2.70;;;;;;;18.07;69.81;96570.91;6187631;23;20009;-89
2023/02/21 09:37:59;;;;;;;7.28;3.40;;;;;;;18.14;70.48;96577.06;6186310;23;20423;-90
2023/02/21 09:40:44;;;;;;;6.32;2.72;;;;;;;18.55;65.88;96563.72;6186878;23;20764;-90
2023/02/21 09:43:44;;;;;;;7.20;2.95;;;;;;;18.86;64.99;96570.38;6234532;22;20008;-91
2023/02/21 09:46:14;;;;;;;6.80;3.22;;;;;;;18.48;62.09;96572.72;6235531;22;20008;-92
2023/02/21 09:48:46;;;;;;;7.45;3.15;;;;;;;18.85;60.99;96568.72;6248695;22;20016;-90
2023/02/21 09:51:37;;;;;;;8.88;3.75;;;;;;;18.44;65.90;96579.44;6210964;23;20035;-91
2023/02/21 09:54:05;;;;;;;7.40;3.50;;;;;;;17.80;66.59;96572.63;6212982;23;20098;-90
2023/02/21 09:56:39;;;;;;;8.43;3.63;;;;;;;18.48;66.84;96576.19;6194794;23;20016;-90
2023/02/21 09:59:12;;;;;;;6.97;3.35;;;;;;;18.21;66.26;96569.13;6237716;22;20012;-91
2023/02/21 10:02:07;;;;;;;;;;;;;;;18.63;63.57;96564.56;6240493;23;20012;-90
2023/02/21 10:05:33;;;;;;;;;;;;;;;;;;;;;
2023/02/21 10:09:07;;;;;;;7.40;3.60;;;;;;;18.82;61.69;96556.63;6213858;23;20022;-91
2023/02/21 10:12:09;;;;;;;7.97;3.05;;;;;;;18.42;63.54;96563.69;6188483;23;20047;-90
2023/02/21 10:15:12;;;;;;;9.02;3.58;;;;;;;19.12;63.91;96561.56;6188127;23;20017;-91
2023/02/21 11:14:46;;;;;;;6.13;3.40;;;;;;;19.60;60.14;96533.84;6254763;22;20518;-88
2023/02/21 11:18:02;;;;;;;9.00;2.85;;;;;;;21.08;52.55;96531.09;6226346;22;20012;-89
2023/02/21 11:21:18;;;;;;;6.65;3.10;;;;;;;19.27;55.95;96530.19;6221528;23;20024;-90
2023/02/21 12:14:59;;;;;;;4.60;2.00;;;;;;;20.53;51.45;96450.72;6263900;22;20030;-90
2023/02/21 13:10:42;;;;;;;3.58;1.50;;;;;;;20.33;54.10;96344.78;6283551;22;20069;-91
2023/02/21 13:13:21;;;;;;;3.17;1.50;;;;;;;20.17;52.15;96337.31;6225941;22;20019;-90
2023/02/21 13:31:58;;;;;;;2.53;1.40;;;;;;;20.11;53.95;96301.63;6039098;23;20026;-91
2023/02/21 14:03:11;;;;;;;2.65;1.30;;;;;;;18.60;69.01;96273.59;6257390;22;20034;-91
2023/02/21 14:06:47;;;;;;;3.75;1.35;;;;;;;19.50;63.22;96263.00;6180311;23;20025;-90
2023/02/21 14:10:42;;;;;;;4.07;1.17;;;;;;;19.35;64.46;96253.66;6164714;23;20022;-89
2023/02/21 14:14:51;;;;;;;;;;;;;;;;;;;;;
2023/02/21 14:18:49;;;;;;;;;;;;;;;;;;;;;
2023/02/21 14:23:15;;;;;;;2.42;1.20;;;;;;;18.80;66.17;96246.13;6182273;23;20335;-90
2023/02/21 14:28:47;;;;;;;3.95;1.77;;;;;;;18.83;66.65;96235.03;6300350;22;20031;-91
2023/02/21 14:32:00;;;;;;;2.78;1.17;;;;;;;18.62;69.25;96228.13;6226041;23;20020;-91
2023/02/21 14:34:52;;;;;;;2.03;1.00;;;;;;;18.70;67.03;96227.88;6194711;23;20019;-91
2023/02/21 14:37:39;;;;;;;2.42;0.93;;;;;;;18.40;70.73;96235.53;6223729;22;20035;-90
2023/02/21 14:40:22;;;;;;;3.92;1.25;;;;;;;18.68;69.64;96223.78;6220125;23;20012;-91
2023/02/21 14:43:30;;;;;;;2.42;1.10;;;;;;;17.59;75.82;96223.28;6196347;23;20023;-91
2023/02/21 14:46:20;;;;;;;2.58;1.15;;;;;;;17.71;77.27;96217.38;6243226;22;20004;-91
2023/02/21 14:49:17;;;;;;;1.25;0.82;;;;;;;17.90;78.11;96211.25;6222323;22;20008;-90
2023/02/21 14:52:22;;;;;;;3.72;1.30;;;;;;;17.96;76.34;96217.59;6246009;22;20024;-91
2023/02/21 14:55:36;;;;;;;2.30;1.20;;;;;;;17.70;76.79;96207.75;6195975;23;20012;-91
2023/02/21 14:58:40;;;;;;;2.97;1.02;;;;;;;16.96;81.75;96206.78;6222085;23;20016;-91
2023/02/21 15:01:18;;;;;;;1.98;0.90;;;;;;;16.99;85.32;96210.91;6208272;23;20015;-91
2023/02/21 15:04:31;;;;;;;3.10;1.27;;;;;;;17.55;83.26;96199.97;6251958;23;20034;-90
2023/02/21 15:07:44;;;;;;;3.35;1.20;;;;;;;17.25;83.46;96199.53;6225054;23;20016;-90
2023/02/21 15:10:37;;;;;;;5.13;1.30;;;;;;;16.91;87.38;96195.97;6070277;22;20014;-91
2023/02/21 15:13:28;;;;;;;1.90;1.00;;;;;;;17.08;88.58;96196.41;6197755;23;20095;-91
2023/02/21 15:16:20;;;;;;;3.08;1.45;;;;;;;16.81;88.28;96200.84;6197381;23;20095;-91
2023/02/21 15:19:16;;;;;;;1.42;0.90;;;;;;;16.84;89.35;96198.59;6220565;23;20566;-91
2023/02/21 15:21:48;;;;;;;2.13;1.00;;;;;;;16.71;90.35;96194.03;6196100;23;20012;-92
2023/02/21 15:24:22;;;;;;;3.70;1.25;;;;;;;16.60;91.91;96191.94;6198880;23;20079;-91
2023/02/21 15:42:46;;;;;;;7.15;3.55;;;;;;;15.83;97.45;96189.44;6035058;23;20053;-90
2023/02/21 15:45:22;;;;;;;3.10;1.40;;;;;;;15.65;98.59;96193.34;6043053;23;20022;-90
2023/02/21 15:47:51;;;;;;;12.20;7.40;;;;;;;15.24;100.00;96194.03;6087935;22;20033;-75
2023/02/21 15:50:45;;;;;;;6.32;2.67;;;;;;;15.09;100.00;96187.97;6209905;23;20055;-75
2023/02/21 15:53:23;;;;;;;7.10;2.50;;;;;;;15.07;100.00;96187.34;6205196;23;20020;-75
2023/02/21 15:56:13;;;;;;;3.83;1.40;;;;;;;15.26;100.00;96180.59;6216724;23;20012;-75
2023/02/21 15:58:39;;;;;;;4.43;1.80;;;;;;;15.25;100.00;96185.06;6213476;23;20016;-77
2023/02/21 16:01:10;;;;;;;5.18;1.35;;;;;;;15.32;100.00;96179.81;6188804;23;20000;-77
2023/02/21 16:03:45;;;;;;;4.70;1.40;;;;;;;15.15;100.00;96173.97;6189787;23;20023;-75
2023/02/21 16:06:28;;;;;;;2.35;1.10;;;;;;;15.15;100.00;96173.16;6188178;23;20020;-74
2023/02/21 16:09:18;;;;;;;2.42;1.50;;;;;;;15.12;100.00;96179.63;6189428;23;20347;-74
2023/02/21 16:11:55;;;;;;;5.50;1.98;;;;;;;15.03;100.00;96178.13;6188433;23;20012;-74
2023/02/21 16:14:34;;;;;;;4.85;2.08;;;;;;;14.94;100.00;96174.78;6213839;23;20043;-74
2023/02/21 16:17:23;;;;;;;4.28;1.85;;;;;;;14.71;100.00;96171.47;6189371;23;20440;-74
2023/02/21 16:20:12;;;;;;;5.80;1.73;;;;;;;14.56;100.00;96174.16;6189461;23;20012;-74
2023/02/21 16:22:40;;;;;;;2.83;1.65;;;;;;;14.58;100.00;96178.22;6240946;23;20020;-74
2023/02/21 16:25:11;;;;;;;5.63;1.40;;;;;;;14.54;100.00;96173.50;6214334;23;20344;-74
2023/02/21 16:27:40;;;;;;;5.33;1.50;;;;;;;14.34;100.00;96163.47;6189623;23;20496;-74
2023/02/21 16:30:15;;;;;;;5.50;1.60;;;;;;;14.28;100.00;96169.47;6188296;23;20095;-74
2023/02/21 16:32:45;;;;;;;19.37;12.10;;;;;;;14.19;100.00;96170.59;6214677;23;20014;-75
2023/02/21 16:35:24;;;;;;;21.00;13.47;;;;;;;14.12;100.00;96180.28;6215613;23;20070;-75
2023/02/21 16:37:53;;;;;;;10.67;5.03;;;;;;;13.98;100.00;96178.44;6242378;23;20022;-75
2023/02/21 16:40:37;;;;;;;7.13;2.93;;;;;;;13.98;100.00;96176.59;6190265;23;20066;-75
2023/02/21 16:43:04;;;;;;;9.33;2.90;;;;;;;13.86;100.00;96175.44;6213507;23;20087;-75
2023/02/21 16:45:31;;;;;;;6.70;2.50;;;;;;;13.78;100.00;96184.28;6241501;23;20426;-76
2023/02/21 16:48:02;;;;;;;11.10;3.83;;;;;;;13.74;100.00;96184.78;6241192;23;20091;-76
2023/02/21 16:50:44;;;;;;;4.70;2.30;;;;;;;13.67;100.00;96179.41;6214142;23;20483;-76
2023/02/21 16:53:11;;;;;;;5.60;1.93;;;;;;;13.58;100.00;96183.13;6240558;23;20019;-73
2023/02/21 16:55:37;;;;;;;4.40;1.47;;;;;;;13.56;100.00;96179.84;6212346;23;20020;-73
2023/02/21 16:58:19;;;;;;;6.20;2.30;;;;;;;13.46;100.00;96179.28;6237710;23;20011;-75
2023/02/21 17:00:46;;;;;;;4.63;2.20;;;;;;;13.41;100.00;96178.00;6237482;23;20055;-72
2023/02/21 17:03:12;;;;;;;29.63;4.57;;;;;;;13.30;100.00;96181.03;6209491;23;20476;-72
2023/02/21 17:05:38;;;;;;;19.53;8.73;;;;;;;13.28;100.00;96175.13;6211258;23;20000;-70
2023/02/21 17:08:04;;;;;;;33.33;18.90;;;;;;;13.39;100.00;96177.34;6186264;23;20015;-73
2023/02/21 17:10:39;;;;;;;15.40;8.30;;;;;;;13.28;100.00;96176.94;6193514;23;20327;-88
2023/02/21 17:13:27;;;;;;;9.97;5.90;;;;;;;13.14;100.00;96181.13;6196086;23;20459;-90
2023/02/21 17:16:06;;;;;;;7.33;4.23;;;;;;;12.98;100.00;96177.63;6194556;23;20047;-90
2023/02/21 17:18:36;;;;;;;9.97;4.63;;;;;;;12.77;100.00;96172.13;6196030;23;20016;-91
2023/02/21 17:21:14;;;;;;;11.50;7.33;;;;;;;12.64;100.00;96174.53;6198433;23;20007;-91
2023/02/21 17:23:43;;;;;;;13.77;8.67;;;;;;;12.49;100.00;96175.25;6199893;23;20078;-93
2023/02/21 17:26:11;;;;;;;15.43;9.50;;;;;;;12.43;100.00;96181.22;6197076;23;20035;-91
2023/02/21 17:28:44;;;;;;;38.37;25.43;;;;;;;12.31;100.00;96179.97;6218737;23;20050;-90
2023/02/21 17:36:31;;;;;;;43.30;26.00;;;;;;;12.12;100.00;96175.91;6038611;23;20197;-91
2023/02/21 17:40:19;;;;;;;24.60;14.70;;;;;;;11.91;100.00;96180.94;5924408;24;20158;-91
2023/02/21 17:58:56;;;;;;;13.88;8.15;;;;;;;11.40;100.00;96196.94;6105213;22;20082;-87
2023/02/21 18:01:22;;;;;;;11.63;7.57;;;;;;;11.33;100.00;96202.03;6214755;23;20012;-86
2023/02/21 18:03:48;;;;;;;13.20;8.33;;;;;;;11.33;100.00;96199.41;6240144;23;20309;-86
2023/02/21 18:06:19;;;;;;;13.50;7.13;;;;;;;11.20;100.00;96203.50;6240523;23;20003;-85
2023/02/21 18:08:47;;;;;;;8.97;5.17;;;;;;;11.28;100.00;96206.97;6214946;23;20020;-86
2023/02/21 18:11:16;;;;;;;17.27;6.30;;;;;;;11.21;100.00;96202.53;6240570;23;20733;-89
2023/02/21 18:13:43;;;;;;;12.60;7.30;;;;;;;11.11;100.00;96201.88;6216591;23;20014;-88
2023/02/21 18:16:40;;;;;;;12.77;5.93;;;;;;;10.98;100.00;96208.41;6220230;23;20060;-87
2023/02/21 18:19:07;;;;;;;9.77;5.40;;;;;;;10.96;100.00;96207.75;6244201;23;20094;-88
2023/02/21 18:21:35;;;;;;;12.43;6.03;;;;;;;10.75;100.00;96204.75;6218409;23;20103;-86
2023/02/21 18:24:02;;;;;;;22.07;14.43;;;;;;;10.49;100.00;96218.81;6217428;23;20041;-85
2023/02/21 18:26:31;;;;;;;28.00;20.57;;;;;;;10.56;100.00;96219.84;6242483;23;20095;-83
2023/02/21 18:29:00;;;;;;;13.47;8.63;;;;;;;10.48;100.00;96219.78;6217286;23;20030;-85
2023/02/21 18:31:26;;;;;;;15.33;7.67;;;;;;;10.50;100.00;96223.09;6242839;23;20462;-84
2023/02/21 18:33:52;;;;;;;13.03;9.73;;;;;;;10.41;100.00;96216.16;6244867;23;20012;-83
2023/02/21 18:36:17;;;;;;;19.27;14.03;;;;;;;10.38;100.00;96219.09;6247338;23;20008;-83
2023/02/21 18:38:48;;;;;;;16.90;11.97;;;;;;;10.36;100.00;96223.69;6248650;23;20055;-85
2023/02/21 18:41:19;;;;;;;13.40;9.13;;;;;;;10.31;100.00;96218.09;6220503;23;20027;-86
2023/02/21 18:46:58;;;;;;;12.30;6.77;;;;;;;10.14;100.00;96217.16;6251823;23;20003;-88
2023/02/21 18:49:32;;;;;;;89.30;30.30;;;;;;;10.58;100.00;96231.00;6250484;22;20618;-90
2023/02/21 18:52:13;;;;;;;13.77;8.00;;;;;;;10.40;100.00;96217.16;6224399;23;20004;-89
2023/02/21 18:54:45;;;;;;;12.27;7.97;;;;;;;10.16;100.00;96217.84;6249907;22;20022;-89
2023/02/21 18:57:12;;;;;;;14.40;6.63;;;;;;;10.06;100.00;96217.09;6227139;23;20007;-92
2023/02/21 18:59:38;;;;;;;11.30;5.90;;;;;;;9.99;100.00;96222.16;6227232;23;20004;-90
2023/02/21 19:02:18;;;;;;;10.50;6.80;;;;;;;9.99;100.00;96222.16;6228663;23;20016;-91
2023/02/21 19:04:44;;;;;;;12.07;6.20;;;;;;;9.89;100.00;96224.06;6227064;23;20099;-93
2023/02/21 19:07:12;;;;;;;11.70;6.37;;;;;;;9.82;100.00;96221.25;6201590;23;20016;-91
2023/02/21 19:09:45;;;;;;;9.60;5.73;;;;;;;9.78;100.00;96219.91;6226037;23;20012;-91
2023/02/21 19:12:14;;;;;;;9.95;6.32;;;;;;;9.70;100.00;96221.66;6225384;23;20016;-90
2023/02/21 19:14:40;;;;;;;9.30;5.50;;;;;;;9.57;100.00;96220.25;6225923;23;20000;-88
2023/02/21 19:17:06;;;;;;;14.10;6.00;;;;;;;9.49;100.00;96222.00;6225037;23;20347;-88
2023/02/21 19:19:33;;;;;;;11.07;6.03;;;;;;;9.35;100.00;96228.63;6244868;23;20066;-87
2023/02/21 19:21:59;;;;;;;11.97;6.23;;;;;;;9.22;100.00;96223.75;6245478;23;20357;-88
2023/02/21 19:24:28;;;;;;;15.23;7.13;;;;;;;9.11;100.00;96231.84;6219730;23;20400;-88
2023/02/21 19:26:57;;;;;;;13.83;6.97;;;;;;;9.05;100.00;96230.66;6191043;23;20019;-89
2023/02/21 19:29:25;;;;;;;11.87;7.93;;;;;;;9.01;100.00;96229.31;6241466;23;20047;-88
2023/02/21 19:31:58;;;;;;;11.80;6.93;;;;;;;8.98;100.00;96229.59;6242056;23;20000;-91
2023/02/21 19:34:36;;;;;;;10.67;6.50;;;;;;;8.79;100.00;96235.00;6216352;23;20019;-86
2023/02/21 19:37:05;;;;;;;12.60;6.37;;;;;;;8.63;100.00;96233.84;6239463;23;20497;-86
2023/02/21 19:39:35;;;;;;;12.43;6.57;;;;;;;8.62;100.00;96231.38;6215851;23;20347;-86
2023/02/21 19:42:04;;;;;;;12.77;7.07;;;;;;;8.47;100.00;96233.66;6239890;23;20024;-86
2023/02/21 19:44:35;;;;;;;16.57;7.70;;;;;;;8.44;100.00;96231.31;6241494;23;20016;-86
2023/02/21 19:47:12;;;;;;;12.90;6.77;;;;;;;8.42;100.00;96238.53;6214153;23;20016;-85
2023/02/21 19:49:46;;;;;;;13.63;6.97;;;;;;;8.25;100.00;96233.03;6243158;23;20020;-86
2023/02/21 19:52:13;;;;;;;11.47;6.17;;;;;;;8.30;100.00;96231.78;6242236;23;20555;-86
2023/02/21 19:54:38;;;;;;;10.83;6.07;;;;;;;8.35;100.00;96242.63;6230886;22;20000;-86
2023/02/21 19:57:04;;;;;;;10.73;6.20;;;;;;;8.29;100.00;96238.00;6264587;22;20000;-86
2023/02/21 19:59:30;;;;;;;12.17;6.37;;;;;;;8.30;100.00;96235.22;6239637;23;19995;-86
2023/02/21 20:01:56;;;;;;;13.43;6.77;;;;;;;8.29;100.00;96240.63;6230912;23;20432;-86
2023/02/21 20:04:29;;;;;;;10.70;6.60;;;;;;;8.12;100.00;96237.78;6248284;23;20016;-86
2023/02/21 20:06:56;;;;;;;11.15;7.32;;;;;;;8.04;100.00;96242.91;6221626;23;20355;-86
2023/02/21 20:09:22;;;;;;;18.43;10.63;;;;;;;8.06;100.00;96242.78;6219586;23;20023;-86
2023/02/21 20:11:48;;;;;;;11.73;6.97;;;;;;;7.99;100.00;96243.34;6224789;23;20035;-87
2023/02/21 20:14:16;;;;;;;15.07;8.60;;;;;;;8.03;100.00;96233.41;6255532;23;20015;-86
2023/02/21 20:16:44;;;;;;;15.30;9.47;;;;;;;8.13;100.00;96239.44;6226117;23;20008;-86
2023/02/21 20:19:11;;;;;;;13.40;8.80;;;;;;;8.04;100.00;96240.28;6249345;23;20019;-86
2023/02/21 20:21:38;;;;;;;12.20;7.10;;;;;;;7.99;100.00;96239.91;6198046;23;20344;-87
2023/02/21 20:24:06;;;;;;;17.80;9.80;;;;;;;7.88;100.00;96242.66;6196370;23;20463;-85
2023/02/21 20:26:32;;;;;;;30.50;17.47;;;;;;;7.88;100.00;96237.44;6198032;23;20534;-87
2023/02/21 20:28:58;;;;;;;21.23;11.80;;;;;;;7.87;100.00;96233.19;6246373;23;20020;-87
2023/02/21 20:31:31;;;;;;;15.97;8.90;;;;;;;7.79;100.00;96239.94;6223891;23;20015;-87
2023/02/21 20:34:04;;;;;;;14.45;7.03;;;;;;;7.74;100.00;96249.19;6199307;23;20012;-86
2023/02/21 20:36:36;;;;;;;12.48;7.28;;;;;;;7.75;100.00;96237.78;6224516;23;20035;-86
2023/02/21 20:39:04;;;;;;;14.17;7.23;;;;;;;7.68;100.00;96240.13;6220299;23;20027;-86
2023/02/21 20:41:32;;;;;;;11.17;6.33;;;;;;;7.67;100.00;96235.84;6221503;23;20023;-86
2023/02/21 20:43:58;;;;;;;15.53;7.27;;;;;;;7.61;100.00;96233.78;6222898;23;20004;-86
2023/02/21 20:46:33;;;;;;;11.50;6.97;;;;;;;7.57;100.00;96232.41;6240516;23;20028;-86
2023/02/21 20:49:03;;;;;;;13.07;7.20;;;;;;;7.57;100.00;96233.22;6256374;23;20011;-86
2023/02/21 20:51:33;;;;;;;13.17;7.17;;;;;;;7.56;100.00;96236.00;6236698;23;20407;-86
2023/02/21 20:54:00;;;;;;;15.37;7.63;;;;;;;7.52;100.00;96237.25;6205135;23;20020;-86
2023/02/21 20:56:34;;;;;;;12.70;7.50;;;;;;;7.47;100.00;96232.44;6225435;23;20023;-86
2023/02/21 20:59:02;;;;;;;13.33;8.23;;;;;;;7.35;100.00;96233.56;6247694;23;20016;-86
2023/02/21 21:01:34;;;;;;;12.03;6.77;;;;;;;7.36;100.00;96237.00;6199170;23;20039;-86
2023/02/21 21:04:06;;;;;;;11.87;6.90;;;;;;;7.29;100.00;96231.50;6248247;23;20008;-86
2023/02/21 21:06:33;;;;;;;13.97;7.10;;;;;;;7.20;100.00;96233.13;6197978;23;20040;-87
2023/02/21 21:09:04;;;;;;;13.87;7.47;;;;;;;7.19;100.00;96235.91;6248263;23;20448;-86
2023/02/21 21:11:31;;;;;;;13.23;7.93;;;;;;;7.11;100.00;96226.16;6247327;23;20031;-86
2023/02/21 21:13:57;;;;;;;12.60;7.20;;;;;;;7.04;100.00;96231.09;6246761;23;20181;-86
2023/02/21 21:16:24;;;;;;;14.10;7.20;;;;;;;6.87;100.00;96226.53;6224448;23;20019;-86
2023/02/21 21:18:50;;;;;;;12.77;7.20;;;;;;;6.59;100.00;96238.59;6217972;23;20016;-87
2023/02/21 21:21:17;;;;;;;15.07;7.47;;;;;;;6.52;100.00;96237.50;6219765;23;20082;-86
2023/02/21 21:23:43;;;;;;;14.67;7.80;;;;;;;6.48;100.00;96236.94;6194962;23;20055;-86
2023/02/21 21:26:10;;;;;;;15.07;7.40;;;;;;;6.55;100.00;96242.44;6220650;23;20015;-86
2023/02/21 21:28:36;;;;;;;11.30;7.60;;;;;;;6.47;100.00;96239.66;6219878;23;20153;-86
2023/02/21 21:31:07;;;;;;;14.23;7.90;;;;;;;6.27;100.00;96236.16;6243539;23;20004;-86
2023/02/21 21:33:33;;;;;;;11.47;7.30;;;;;;;6.20;100.00;96240.25;6245061;23;20023;-85
2023/02/21 21:35:59;;;;;;;15.17;8.60;;;;;;;6.24;100.00;96245.13;6220355;23;20004;-85
2023/02/21 21:38:26;;;;;;;12.43;7.97;;;;;;;6.25;100.00;96236.31;6220449;23;20012;-86
2023/02/21 21:40:57;;;;;;;13.80;8.60;;;;;;;6.24;100.00;96237.28;6218061;23;20016;-86